Dades meteomassalio
Diari Summary for Marc 14, 2017 Units:  Metric    English   Both
« Previous Day
Next Day »
Diari Semanal Mensual Anual Personalitzat
  Maxima: Minima: Mijana:
Temperatura: -17.8 °C -14.4 °C -11.3 °C
Rosada: -17.8 °C -15.1 °C -13.2 °C
Humitat: Humidity % 55 % 81 %
Velocitat del vent: 0 km/h 0 km/h 6.3 km/h
Racha vent: 0 km/h - -
Vent:- - West
Pressio: 0 hPa 34774.2 hPa -
Pluja: 7.62 mm    
Historical Graphs
 
 
Tabular Data for Marc 14, 2017
Time Temperature Dew Point Pressure Wind Wind Speed Wind Gust Humidity Rainfall Rate (Hourly) solar Conditions
-17.8 °C -17.8 °C 0 hPa Calm     Humidity % 0 mm SolarRadiationWatts/m^2 W/m2 Conditions
00:00 -11.7 °C -13.3 °C 34831.8 hPa Calm     82 % 0 mm 0.0 W/m2 CLR
00:05 -11.7 °C -13.3 °C 34831.8 hPa Calm     83 % 0 mm 0.0 W/m2 RA
00:10 -11.9 °C -13.4 °C 34831.8 hPa Calm     83 % 0 mm 0.0 W/m2 CLR
00:15 -12 °C -13.4 °C 34831.8 hPa Calm     84 % 0 mm 0.0 W/m2 CLR
00:20 -12.1 °C -13.4 °C 34831.8 hPa Calm     85 % 0 mm 0.0 W/m2 CLR
00:25 -12.2 °C -13.4 °C 34831.8 hPa Calm     86 % 0 mm 0.0 W/m2 CLR
00:30 -12.3 °C -13.6 °C 34831.8 hPa Calm     86 % 0 mm 0.0 W/m2 CLR
00:35 -12.4 °C -13.6 °C 34831.8 hPa Calm     87 % 0 mm 0.0 W/m2 CLR
00:40 -12.5 °C -13.7 °C 34831.8 hPa Calm     87 % 0 mm 0.0 W/m2 CLR
00:45 -12.6 °C -13.7 °C 34831.8 hPa Calm     87 % 0 mm 0.0 W/m2 CLR
00:50 -12.7 °C -13.7 °C 34831.8 hPa Calm     88 % 0 mm 0.0 W/m2 CLR
00:55 -12.7 °C -13.8 °C 34831.8 hPa Calm     88 % 0 mm 0.0 W/m2 CLR
01:00 -12.8 °C -13.8 °C 34831.8 hPa Calm     89 % 0 mm 0.0 W/m2 CLR
01:05 -12.9 °C -13.9 °C 34831.8 hPa Calm     89 % 0 mm 0.0 W/m2 CLR
01:10 -12.9 °C -13.8 °C 34831.8 hPa Calm     90 % 0 mm 0.0 W/m2 CLR
01:15 -12.9 °C -13.8 °C 34831.8 hPa Calm     90 % 0 mm 0.0 W/m2 CLR
01:20 -13.1 °C -14.1 °C 34841.9 hPa Calm     89 % 0 mm 0.0 W/m2 CLR
01:21 -13.1 °C -13.9 °C 34841.9 hPa Calm     90 % 0 mm 0.0 W/m2 CLR
01:26 -13.2 °C -14.1 °C 34841.9 hPa Calm     90 % 0 mm 0.0 W/m2 CLR
01:31 -13.2 °C -14.1 °C 34841.9 hPa Calm     90 % 0 mm 0.0 W/m2 CLR
01:36 -13.2 °C -14 °C 34841.9 hPa Calm     91 % 0 mm 0.0 W/m2 CLR
01:41 -13.2 °C -14 °C 34841.9 hPa Calm     91 % 0 mm 0.0 W/m2 CLR
01:46 -13.3 °C -14.1 °C 34841.9 hPa Calm     91 % 0 mm 0.0 W/m2 CLR
01:51 -13.3 °C -14.1 °C 34831.8 hPa Calm     91 % 0 mm 0.0 W/m2 CLR
01:56 -13.3 °C -14.1 °C 34831.8 hPa Calm     91 % 0 mm 0.0 W/m2 CLR
02:01 -13.3 °C -14.1 °C 34831.8 hPa Calm     91 % 0 mm 0.0 W/m2 CLR
02:06 -13.3 °C -14.1 °C 34818.2 hPa Calm     91 % 0 mm 0.0 W/m2 CLR
02:11 -13.3 °C -14 °C 34818.2 hPa Calm     92 % 0 mm 0.0 W/m2 CLR
02:16 -13.3 °C -14 °C 34818.2 hPa Calm     92 % 0 mm 0.0 W/m2 CLR
02:21 -13.3 °C -14 °C 34818.2 hPa Calm     92 % 0 mm 0.0 W/m2 CLR
02:26 -13.4 °C -14.2 °C 34818.2 hPa Calm     91 % 0 mm 0.0 W/m2 CLR
02:31 -13.4 °C -14.2 °C 34831.8 hPa Calm     91 % 0 mm 0.0 W/m2 CLR
02:36 -13.5 °C -14.2 °C 34818.2 hPa Calm     92 % 0 mm 0.0 W/m2 CLR
02:41 -13.4 °C -14.1 °C 34831.8 hPa Calm     92 % 0 mm 0.0 W/m2 CLR
02:46 -13.4 °C -14.1 °C 34831.8 hPa Calm     92 % 0 mm 0.0 W/m2 CLR
02:51 -13.4 °C -14.1 °C 34831.8 hPa Calm     92 % 0 mm 0.0 W/m2 CLR
02:56 -13.4 °C -14.1 °C 34831.8 hPa WSW 2.6 km/h 2.6 km/h 92 % 0 mm 0.0 W/m2 CLR
03:01 -13.4 °C -14.1 °C 34841.9 hPa WSW 9 km/h 9 km/h 92 % 0 mm 0.0 W/m2 CLR
03:06 -13.3 °C -14 °C 34841.9 hPa WSW 10.3 km/h 10.3 km/h 92 % 0 mm 0.0 W/m2 CLR
03:11 -13.2 °C -13.8 °C 34841.9 hPa WSW 11.9 km/h 11.9 km/h 93 % 0 mm 0.0 W/m2 CLR
03:16 -13.1 °C -13.8 °C 34841.9 hPa WSW 9 km/h 9 km/h 92 % 0 mm 0.0 W/m2 CLR
03:21 -13 °C -13.6 °C 34841.9 hPa WSW 11.9 km/h 11.9 km/h 93 % 0 mm 0.0 W/m2 CLR
03:26 -12.9 °C -13.6 °C 34841.9 hPa WSW 11.9 km/h 11.9 km/h 92 % 0 mm 0.0 W/m2 CLR
03:31 -12.8 °C -13.5 °C 34841.9 hPa West 9 km/h 9 km/h 92 % 0 mm 0.0 W/m2 CLR
03:36 -12.7 °C -13.4 °C 34841.9 hPa Calm     92 % 0 mm 0.0 W/m2 CLR
03:41 -12.7 °C -13.3 °C 34841.9 hPa Calm     92 % 0 mm 0.0 W/m2 CLR
03:46 -12.7 °C -13.4 °C 34831.8 hPa Calm     91 % 0 mm 0.0 W/m2 CLR
03:51 -12.7 °C -13.4 °C 34831.8 hPa Calm     91 % 0 mm 0.0 W/m2 CLR
03:56 -12.7 °C -13.5 °C 34831.8 hPa Calm     91 % 0 mm 0.0 W/m2 CLR
04:01 -12.7 °C -13.5 °C 34831.8 hPa Calm     91 % 0 mm 0.0 W/m2 CLR
04:06 -12.7 °C -13.5 °C 34831.8 hPa NW 10.3 km/h 10.3 km/h 91 % 0 mm 0.0 W/m2 CLR
04:11 -12.7 °C -13.4 °C 34831.8 hPa WNW 9 km/h 9 km/h 91 % 0 mm 0.0 W/m2 CLR
04:16 -12.7 °C -13.6 °C 34831.8 hPa WSW 9 km/h 9 km/h 90 % 0 mm 0.0 W/m2 CLR
04:21 -12.7 °C -13.6 °C 34831.8 hPa Calm     90 % 0 mm 0.0 W/m2 CLR
04:26 -12.7 °C -13.6 °C 34841.9 hPa WSW 11.9 km/h 11.9 km/h 90 % 0 mm 0.0 W/m2 CLR
04:31 -12.7 °C -13.6 °C 34841.9 hPa WSW 6 km/h 6 km/h 90 % 0 mm 0.0 W/m2 CLR
04:36 -12.8 °C -13.7 °C 34841.9 hPa Calm     90 % 0 mm 0.0 W/m2 CLR
04:42 -12.8 °C -13.7 °C 34852.1 hPa Calm     90 % 0 mm 0.0 W/m2 CLR
04:47 -12.8 °C -13.7 °C 34852.1 hPa Calm     90 % 0 mm 0.0 W/m2 CLR
04:52 -12.9 °C -13.7 °C 34852.1 hPa Calm   0.5 km/h 90 % 0 mm 0.0 W/m2 CLR
04:57 -12.9 °C -13.7 °C 34852.1 hPa Calm     90 % 0 mm 0.0 W/m2 CLR
05:02 -12.9 °C -13.7 °C 34852.1 hPa Calm     91 % 0 mm 0.0 W/m2 CLR
05:07 -12.9 °C -13.8 °C 34852.1 hPa Calm     90 % 0 mm 0.0 W/m2 CLR
05:12 -12.9 °C -13.8 °C 34852.1 hPa Calm     90 % 0 mm 0.0 W/m2 CLR
05:17 -12.9 °C -13.8 °C 34852.1 hPa Calm     90 % 0 mm 0.0 W/m2 CLR
05:22 -13 °C -13.8 °C 34865.6 hPa Calm     91 % 0 mm 0.0 W/m2 CLR
05:27 -13.1 °C -13.8 °C 34865.6 hPa WSW 10.3 km/h 10.3 km/h 91 % 0 mm 0.0 W/m2 CLR
05:32 -13.1 °C -13.8 °C 34865.6 hPa Calm     91 % 0 mm 0.0 W/m2 CLR
05:37 -13.1 °C -13.9 °C 34865.6 hPa Calm     91 % 0 mm 0.0 W/m2 CLR
05:42 -13.1 °C -13.9 °C 34875.8 hPa Calm     91 % 0 mm 0.0 W/m2 CLR
05:47 -13.1 °C -13.9 °C 34865.6 hPa Calm     91 % 0 mm 0.0 W/m2 CLR
05:52 -13.2 °C -13.9 °C 34865.6 hPa Calm     91 % 0 mm 0.0 W/m2 CLR
05:57 -13.2 °C -14 °C 34865.6 hPa Calm     91 % 0 mm 0.0 W/m2 CLR
06:02 -13.2 °C -14 °C 34875.8 hPa Calm     91 % 0 mm 0.0 W/m2 CLR
06:07 -13.4 °C -14.1 °C 34875.8 hPa Calm     91 % 0 mm 0.0 W/m2 CLR
06:12 -13.4 °C -14.2 °C 34875.8 hPa Calm     91 % 0 mm 0.0 W/m2 CLR
06:17 -13.6 °C -14.3 °C 34875.8 hPa Calm     91 % 0 mm 0.0 W/m2 CLR
06:22 -13.7 °C -14.5 °C 34875.8 hPa Calm     91 % 0 mm 0.0 W/m2 CLR
06:27 -13.7 °C -14.5 °C 34875.8 hPa Calm     91 % 0 mm 0.0 W/m2 CLR
06:32 -13.8 °C -14.5 °C 34875.8 hPa Calm     92 % 0 mm 0.0 W/m2 CLR
06:37 -13.8 °C -14.5 °C 34889.3 hPa Calm     92 % 0 mm 0.0 W/m2 CLR
06:47 -13.8 °C -14.5 °C 34889.3 hPa Calm     92 % 0 mm 0.0 W/m2 CLR
06:52 -13.9 °C -14.6 °C 34889.3 hPa Calm     92 % 0 mm 0.0 W/m2 CLR
06:57 -14 °C -14.7 °C 34889.3 hPa Calm     92 % 0 mm 0.0 W/m2 CLR
07:02 -14.1 °C -14.8 °C 34889.3 hPa Calm     92 % 0 mm 0.0 W/m2 OVC
07:07 -14.1 °C -14.8 °C 34889.3 hPa Calm     92 % 0 mm 0.0 W/m2 OVC
07:12 -14.2 °C -14.8 °C 34899.5 hPa Calm     92 % 0 mm 0.0 W/m2 OVC
07:17 -14.2 °C -14.9 °C 34899.5 hPa Calm     92 % 0 mm 7.0 W/m2 OVC
07:22 -14.3 °C -14.9 °C 34899.5 hPa Calm     92 % 0 mm 11.0 W/m2 BKN
07:27 -14.3 °C -14.9 °C 34899.5 hPa Calm     92 % 0 mm 14.0 W/m2 BKN
07:32 -14.3 °C -15.1 °C 34899.5 hPa Calm     92 % 0 mm 21.0 W/m2 BKN
07:37 -14.3 °C -14.9 °C 34899.5 hPa Calm     93 % 0 mm 26.0 W/m2 BKN
07:42 -14.4 °C -14.9 °C 34899.5 hPa Calm     93 % 0 mm 33.0 W/m2 BKN
07:47 -14.3 °C -14.9 °C 34909.7 hPa WSW 9 km/h 9 km/h 93 % 0 mm 42.0 W/m2 BKN
07:52 -14.2 °C -14.8 °C 34899.5 hPa West 3.1 km/h   93 % 0 mm 51.0 W/m2 SCT
07:57 -14 °C -14.6 °C 34899.5 hPa Calm     93 % 0 mm 58.0 W/m2 SCT
08:02 -14 °C -14.6 °C 34899.5 hPa Calm     93 % 0 mm 67.0 W/m2 FEW
08:07 -14.1 °C -14.6 °C 34909.7 hPa Calm     93 % 0 mm 81.0 W/m2 FEW
08:12 -13.9 °C -14.6 °C 34909.7 hPa Calm     93 % 0 mm 90.0 W/m2 CLR
08:17 -13.8 °C -14.4 °C 34909.7 hPa Calm     93 % 7.62 mm 105.0 W/m2 RA
08:22 -13.8 °C -14.4 °C 34909.7 hPa SW 9 km/h 9 km/h 93 % 7.62 mm 84.0 W/m2 CLR
08:27 -13.7 °C -14.3 °C 34923.2 hPa Calm     93 % 7.62 mm 114.0 W/m2 CLR
08:32 -13.6 °C -14.2 °C 34923.2 hPa Calm     93 % 7.62 mm 155.0 W/m2 CLR
08:33 -13.6 °C -14.2 °C 34923.2 hPa Calm     93 % 7.62 mm 151.0 W/m2 CLR
08:38 -13.4 °C -14.1 °C 34923.2 hPa Calm     93 % 7.62 mm 102.0 W/m2 CLR
08:43 -13.4 °C -13.9 °C 34923.2 hPa Calm     93 % 7.62 mm 109.0 W/m2 CLR
08:48 -13.4 °C -13.9 °C 34933.4 hPa NW 2.6 km/h   93 % 7.62 mm 111.0 W/m2 CLR
08:53 -13.2 °C -13.8 °C 34923.2 hPa WNW 15 km/h 15 km/h 93 % 7.62 mm 195.0 W/m2 CLR
08:58 -13 °C -13.6 °C 34933.4 hPa Calm     93 % 7.62 mm 207.0 W/m2 CLR
09:03 -12.8 °C -13.5 °C 34923.2 hPa NW 9 km/h 9 km/h 92 % 7.62 mm 206.0 W/m2 CLR
09:08 -12.7 °C -13.3 °C 34923.2 hPa WNW 12.9 km/h 12.9 km/h 92 % 7.62 mm 283.0 W/m2 CLR
09:13 -12.5 °C -13.4 °C 34923.2 hPa NW 23.8 km/h 23.8 km/h 90 % 7.62 mm 294.0 W/m2 CLR
09:18 -12.4 °C -13.3 °C 34933.4 hPa WNW 15 km/h 15 km/h 89 % 0 mm 179.0 W/m2 CLR
09:23 -12.4 °C -13.4 °C 34933.4 hPa NW 20.9 km/h 20.9 km/h 88 % 0 mm 178.0 W/m2 CLR
09:28 -12.3 °C -13.4 °C 34933.4 hPa NW 10.3 km/h 10.3 km/h 88 % 0 mm 144.0 W/m2 CLR
09:33 -12.3 °C -13.4 °C 34946.9 hPa NW 29.8 km/h 29.8 km/h 88 % 0 mm 135.0 W/m2 CLR
09:38 -12.3 °C -13.5 °C 34933.4 hPa NNW 17.9 km/h 17.9 km/h 87 % 0 mm 116.0 W/m2 CLR
09:43 -12.3 °C -13.4 °C 34946.9 hPa WNW 9 km/h 9 km/h 87 % 0 mm 151.0 W/m2 CLR
09:48 -12.3 °C -13.4 °C 34946.9 hPa NW 26.9 km/h 26.9 km/h 87 % 0 mm 141.0 W/m2 CLR
09:53 -12.3 °C -13.4 °C 34946.9 hPa NW 18.2 km/h 18.2 km/h 87 % 0 mm 207.0 W/m2 CLR
09:58 -12.2 °C -13.4 °C 34946.9 hPa NNW 15.6 km/h 15.6 km/h 87 % 0 mm 230.0 W/m2 CLR
10:03 -12.2 °C -13.4 °C 34946.9 hPa WNW 20.9 km/h 20.9 km/h 86 % 0 mm 250.0 W/m2 CLR
10:08 -12.1 °C -13.3 °C 34946.9 hPa WNW 17.9 km/h 17.9 km/h 86 % 0 mm 202.0 W/m2 CLR
10:13 -12.1 °C -13.3 °C 34946.9 hPa NW 20.9 km/h 20.9 km/h 86 % 0 mm 195.0 W/m2 CLR
10:18 -12.1 °C -13.3 °C 34946.9 hPa WNW 17.9 km/h 17.9 km/h 86 % 0 mm 269.0 W/m2 CLR
10:23 -12 °C -13.2 °C 34946.9 hPa NNW 20.9 km/h 20.9 km/h 86 % 0 mm 306.0 W/m2 CLR
10:28 -11.8 °C -13.1 °C 34946.9 hPa WNW 18.2 km/h 18.2 km/h 86 % 0 mm 285.0 W/m2 CLR
10:33 -11.8 °C -13.2 °C 34946.9 hPa WNW 23.3 km/h 23.3 km/h 85 % 0 mm 494.0 W/m2 CLR
10:38 -11.7 °C -13.1 °C 34946.9 hPa West 23.3 km/h 23.3 km/h 85 % 0 mm 397.0 W/m2 CLR
10:43 -11.7 °C -13.1 °C 34946.9 hPa WNW 17.9 km/h 17.9 km/h 84 % 0 mm 302.0 W/m2 CLR
10:48 -11.6 °C -13 °C 34933.4 hPa NW 15 km/h 15 km/h 84 % 0 mm 552.0 W/m2 CLR
10:53 -11.5 °C -13 °C 34933.4 hPa West 20.9 km/h 20.9 km/h 83 % 0 mm 311.0 W/m2 CLR
10:58 -11.5 °C -12.9 °C 34933.4 hPa WNW 20.8 km/h 20.8 km/h 84 % 0 mm 599.0 W/m2 CLR
11:03 -11.3 °C -12.9 °C 34933.4 hPa WSW 20.9 km/h 20.9 km/h 83 % 0 mm 568.0 W/m2 CLR
11:08 -11.2 °C -12.9 °C 34933.4 hPa WSW 23.8 km/h 23.8 km/h 82 % 0 mm 589.0 W/m2 CLR
11:13 -11.1 °C -12.7 °C 34923.2 hPa West 23.8 km/h 23.8 km/h 83 % 0 mm 599.0 W/m2 CLR
11:18 -10.9 °C -12.7 °C 34923.2 hPa West 15 km/h 15 km/h 81 % 0 mm 612.0 W/m2 CLR
11:23 -10.8 °C -12.4 °C 34909.7 hPa WSW 15 km/h 15 km/h 82 % 0 mm 605.0 W/m2 CLR
11:28 -10.7 °C -12.6 °C 34909.7 hPa WSW 17.9 km/h 17.9 km/h 80 % 0 mm 631.0 W/m2 CLR
11:33 -10.7 °C -12.4 °C 34909.7 hPa SSW 11.9 km/h 11.9 km/h 81 % 0 mm 626.0 W/m2 CLR
11:38 -10.5 °C -12.4 °C 34909.7 hPa Calm   0.3 km/h 80 % 0 mm 638.0 W/m2 CLR
11:43 -10.4 °C -12.3 °C 34923.2 hPa West 11.9 km/h 11.9 km/h 79 % 0 mm 647.0 W/m2 CLR
11:48 -10.2 °C -12.2 °C 34909.7 hPa SW 15 km/h 15 km/h 79 % 0 mm 656.0 W/m2 CLR
11:53 -10.1 °C -12.2 °C 34909.7 hPa WNW 17.9 km/h 17.9 km/h 78 % 0 mm 673.0 W/m2 CLR
11:58 -10.1 °C -12.2 °C 34909.7 hPa SW 15 km/h 15 km/h 78 % 0 mm 693.0 W/m2 CLR
12:03 -9.9 °C -12 °C 34909.7 hPa WSW 9 km/h 9 km/h 78 % 0 mm 679.0 W/m2 CLR
12:08 -9.9 °C -12.2 °C 34909.7 hPa WSW 15 km/h 15 km/h 76 % 0 mm 679.0 W/m2 CLR
12:13 -9.9 °C -12.3 °C 34899.5 hPa SW 29.8 km/h 29.8 km/h 75 % 0 mm 689.0 W/m2 CLR
12:18 -9.8 °C -12.1 °C 34899.5 hPa WSW 23.8 km/h 23.8 km/h 77 % 0 mm 682.0 W/m2 CLR
12:28 -9.8 °C -12.2 °C 34899.5 hPa WSW 11.9 km/h 11.9 km/h 75 % 0 mm 701.0 W/m2 CLR
12:33 -9.6 °C -12.1 °C 34899.5 hPa SW 15 km/h 15 km/h 75 % 0 mm 708.0 W/m2 CLR
12:38 -9.5 °C -12.2 °C 34899.5 hPa SW 20.9 km/h 20.9 km/h 73 % 0 mm 744.0 W/m2 CLR
12:43 -9.4 °C -12 °C 34899.5 hPa WNW 18.2 km/h 18.2 km/h 74 % 0 mm 650.0 W/m2 CLR
12:48 -9.4 °C -12.1 °C 34889.3 hPa WSW 26.9 km/h 26.9 km/h 73 % 0 mm 754.0 W/m2 CLR
12:53 -9.5 °C -12.3 °C 34889.3 hPa West 23.8 km/h 23.8 km/h 72 % 0 mm 459.0 W/m2 CLR
12:58 -9.4 °C -12 °C 34889.3 hPa SW 20.9 km/h 20.9 km/h 74 % 0 mm 731.0 W/m2 CLR
13:03 -9.3 °C -12.1 °C 34889.3 hPa WNW 17.9 km/h 17.9 km/h 72 % 0 mm 726.0 W/m2 CLR
13:08 -9.2 °C -12.1 °C 34889.3 hPa West 18.2 km/h 18.2 km/h 71 % 0 mm 786.0 W/m2 CLR
13:13 -9.1 °C -12.1 °C 34875.8 hPa SW 11.9 km/h 11.9 km/h 71 % 0 mm 740.0 W/m2 CLR
13:18 -9.1 °C -12.2 °C 34875.8 hPa WSW 17.9 km/h 17.9 km/h 69 % 0 mm 751.0 W/m2 CLR
13:23 -8.9 °C -11.9 °C 34875.8 hPa WNW 3.1 km/h   71 % 0 mm 821.0 W/m2 CLR
13:28 -8.8 °C -11.9 °C 34875.8 hPa NNW 17.9 km/h 17.9 km/h 70 % 0 mm 824.0 W/m2 CLR
13:33 -8.7 °C -11.7 °C 34875.8 hPa WSW 9 km/h   71 % 0 mm 828.0 W/m2 CLR
13:38 -8.6 °C -11.8 °C 34865.6 hPa NW 20.9 km/h 20.9 km/h 69 % 0 mm 775.0 W/m2 CLR
13:43 -8.8 °C -12.1 °C 34865.6 hPa NNW 9 km/h 9 km/h 68 % 0 mm 330.0 W/m2 CLR
13:48 -8.8 °C -11.9 °C 34865.6 hPa West 20.9 km/h 20.9 km/h 70 % 0 mm 784.0 W/m2 CLR
13:53 -8.9 °C -12.2 °C 34852.1 hPa West 18.2 km/h 18.2 km/h 68 % 0 mm 190.0 W/m2 CLR
13:58 -9 °C -12.4 °C 34865.6 hPa SW 9 km/h 9 km/h 67 % 0 mm 260.0 W/m2 CLR
14:03 -8.7 °C -12.1 °C 34852.1 hPa SW 9 km/h   67 % 0 mm 773.0 W/m2 CLR
14:08 -8.5 °C -11.9 °C 34852.1 hPa WNW 15.6 km/h 15.6 km/h 67 % 0 mm 288.0 W/m2 CLR
14:13 -8.6 °C -12.1 °C 34852.1 hPa SW 18.2 km/h 18.2 km/h 66 % 0 mm 788.0 W/m2 CLR
14:18 -8.4 °C -11.7 °C 34841.9 hPa WNW 20.9 km/h 20.9 km/h 68 % 0 mm 749.0 W/m2 CLR
14:23 -8.7 °C -11.8 °C 34841.9 hPa WNW 20.9 km/h 20.9 km/h 69 % 0 mm 264.0 W/m2 CLR
14:28 -8.7 °C -11.9 °C 34841.9 hPa WNW 18.2 km/h 18.2 km/h 69 % 0 mm 677.0 W/m2 CLR
14:33 -8.6 °C -11.9 °C 34831.8 hPa NW 20.9 km/h 20.9 km/h 68 % 0 mm 659.0 W/m2 CLR
14:38 -8.5 °C -12.1 °C 34831.8 hPa NNW 23.8 km/h 23.8 km/h 66 % 0 mm 638.0 W/m2 CLR
14:43 -8.4 °C -12.3 °C 34831.8 hPa West 23.8 km/h 23.8 km/h 64 % 0 mm 650.0 W/m2 CLR
14:48 -8.4 °C -12.3 °C 34831.8 hPa WNW 7.7 km/h 7.7 km/h 64 % 0 mm 626.0 W/m2 CLR
14:53 -8.3 °C -12.2 °C 34831.8 hPa West 17.9 km/h 17.9 km/h 64 % 0 mm 628.0 W/m2 CLR
14:58 -8.2 °C -11.9 °C 34831.8 hPa WNW 6 km/h   65 % 0 mm 615.0 W/m2 CLR
15:03 -8 °C -12 °C 34818.2 hPa WSW 10.3 km/h 10.3 km/h 63 % 0 mm 621.0 W/m2 CLR
15:08 -7.9 °C -12.1 °C 34818.2 hPa SW 12.9 km/h 12.9 km/h 61 % 0 mm 601.0 W/m2 CLR
15:13 -7.9 °C -12.3 °C 34818.2 hPa West 11.9 km/h 11.9 km/h 60 % 0 mm 596.0 W/m2 CLR
15:18 -7.9 °C -12.3 °C 34818.2 hPa WSW 11.9 km/h 11.9 km/h 60 % 0 mm 589.0 W/m2 CLR
15:19 -7.9 °C -12.3 °C 34818.2 hPa WSW 11.9 km/h 11.9 km/h 60 % 0 mm 589.0 W/m2 CLR
15:24 -7.9 °C -12.3 °C 34808.1 hPa West 15.6 km/h 18.3 km/h 60 % 0 mm 573.0 W/m2 CLR
15:29 -7.9 °C -12.4 °C 34808.1 hPa West 17.9 km/h 17.9 km/h 59 % 0 mm 568.0 W/m2 CLR
15:34 -7.9 °C -11.9 °C 34808.1 hPa NNW 17.9 km/h 17.9 km/h 63 % 0 mm 554.0 W/m2 CLR
15:39 -7.8 °C -12.3 °C 34808.1 hPa NW 20.9 km/h 20.9 km/h 59 % 0 mm 545.0 W/m2 CLR
15:44 -7.8 °C -12.3 °C 34808.1 hPa West 23.8 km/h 23.8 km/h 59 % 0 mm 533.0 W/m2 CLR
15:49 -7.7 °C -12.3 °C 34808.1 hPa WSW 9 km/h 9 km/h 59 % 0 mm 522.0 W/m2 CLR
15:54 -7.7 °C -12.7 °C 34797.9 hPa West 17.9 km/h 17.9 km/h 56 % 0 mm 504.0 W/m2 CLR
15:59 -7.7 °C -12.4 °C 34797.9 hPa West 15 km/h 15 km/h 58 % 0 mm 494.0 W/m2 CLR
16:04 -7.6 °C -12.3 °C 34797.9 hPa SW 11.9 km/h 11.9 km/h 58 % 0 mm 480.0 W/m2 CLR
16:09 -7.6 °C -12.1 °C 34797.9 hPa NW 15.6 km/h 15.6 km/h 59 % 0 mm 454.0 W/m2 CLR
16:14 -7.6 °C -12.2 °C 34797.9 hPa NW 7.7 km/h 7.7 km/h 59 % 0 mm 461.0 W/m2 CLR
16:19 -7.6 °C -12.1 °C 34797.9 hPa WNW 15 km/h 15 km/h 59 % 0 mm 443.0 W/m2 CLR
16:24 -7.6 °C -11.8 °C 34797.9 hPa NW 20.9 km/h 20.9 km/h 61 % 0 mm 427.0 W/m2 CLR
16:29 -7.7 °C -12.4 °C 34797.9 hPa Calm     57 % 0 mm 420.0 W/m2 CLR
16:34 -7.6 °C -11.8 °C 34784.4 hPa NNW 23.3 km/h 23.3 km/h 61 % 0 mm 406.0 W/m2 CLR
16:39 -7.6 °C -11.7 °C 34784.4 hPa NW 15 km/h 15 km/h 62 % 0 mm 387.0 W/m2 CLR
16:44 -7.6 °C -12.1 °C 34784.4 hPa Calm     59 % 0 mm 374.0 W/m2 CLR
16:49 -7.4 °C -11.9 °C 34784.4 hPa West 15 km/h 15 km/h 59 % 0 mm 364.0 W/m2 CLR
16:54 -7.4 °C -11.8 °C 34784.4 hPa NW 10.3 km/h 10.3 km/h 60 % 0 mm 348.0 W/m2 CLR
16:59 -7.4 °C -11.9 °C 34784.4 hPa WNW 15 km/h 15 km/h 59 % 0 mm 332.0 W/m2 CLR
17:04 -7.5 °C -12.2 °C 34784.4 hPa Calm     58 % 0 mm 313.0 W/m2 CLR
17:09 -7.4 °C -12.1 °C 34784.4 hPa West 11.9 km/h 11.9 km/h 58 % 0 mm 304.0 W/m2 CLR
17:14 -7.4 °C -12.3 °C 34784.4 hPa WNW 18.2 km/h 18.2 km/h 57 % 0 mm 290.0 W/m2 CLR
17:19 -7.6 °C -12.3 °C 34784.4 hPa West 12.9 km/h 12.9 km/h 57 % 0 mm 271.0 W/m2 CLR
17:24 -7.6 °C -12.7 °C 34784.4 hPa Calm     55 % 0 mm 257.0 W/m2 CLR
17:29 -7.5 °C -12.1 °C 34784.4 hPa NW 9 km/h 9 km/h 59 % 0 mm 239.0 W/m2 CLR
17:34 -7.6 °C -12.2 °C 34784.4 hPa Calm     58 % 0 mm 227.0 W/m2 CLR
17:39 -7.5 °C -12.3 °C 34784.4 hPa Calm     57 % 0 mm 202.0 W/m2 CLR
17:44 -7.4 °C -12.4 °C 34774.2 hPa Calm     56 % 0 mm 185.0 W/m2 CLR
17:49 -7.4 °C -12.6 °C 34784.4 hPa Calm     55 % 0 mm 169.0 W/m2 CLR
17:54 -7.3 °C -12.2 °C 34774.2 hPa Calm     57 % 0 mm 149.0 W/m2 CLR
17:59 -7.4 °C -12.1 °C 34774.2 hPa Calm     58 % 0 mm 132.0 W/m2 CLR
18:04 -7.4 °C -12.1 °C 34774.2 hPa WNW 3.1 km/h 3.1 km/h 58 % 0 mm 116.0 W/m2 CLR
18:09 -7.4 °C -12.3 °C 34774.2 hPa Calm     57 % 0 mm 100.0 W/m2 CLR
18:14 -7.6 °C -11.9 °C 34774.2 hPa Calm     60 % 0 mm 86.0 W/m2 CLR
18:19 -7.6 °C -12 °C 34774.2 hPa Calm     60 % 0 mm 62.0 W/m2 FEW
18:24 -7.7 °C -12.3 °C 34774.2 hPa Calm     59 % 0 mm 53.0 W/m2 SCT
18:29 -7.7 °C -12.6 °C 34774.2 hPa Calm     57 % 0 mm 46.0 W/m2 SCT
18:34 -7.8 °C -12.3 °C 34784.4 hPa Calm     59 % 0 mm 35.0 W/m2 BKN
18:39 -7.9 °C -12.3 °C 34784.4 hPa Calm     60 % 0 mm 26.0 W/m2 BKN
18:44 -7.9 °C -12.2 °C 34784.4 hPa Calm     61 % 0 mm 18.0 W/m2 BKN
18:49 -8.2 °C -12.3 °C 34784.4 hPa Calm     62 % 0 mm 14.0 W/m2 BKN
18:54 -8.5 °C -12.3 °C 34784.4 hPa Calm     64 % 0 mm 9.0 W/m2 BKN
18:59 -8.7 °C -12.4 °C 34784.4 hPa Calm     65 % 0 mm 5.0 W/m2 OVC
19:04 -8.9 °C -12.3 °C 34784.4 hPa Calm     67 % 0 mm 0.0 W/m2 OVC
19:09 -9.1 °C -12.4 °C 34784.4 hPa Calm     67 % 0 mm 0.0 W/m2 OVC
19:14 -9.2 °C -12.4 °C 34797.9 hPa Calm     68 % 0 mm 0.0 W/m2 OVC
19:19 -9.2 °C -12.5 °C 34797.9 hPa Calm     68 % 0 mm 0.0 W/m2 CLR
19:24 -9.3 °C -12.3 °C 34797.9 hPa Calm     70 % 0 mm 0.0 W/m2 CLR
19:29 -9.5 °C -12.4 °C 34797.9 hPa Calm     71 % 0 mm 0.0 W/m2 CLR
19:34 -9.6 °C -12.3 °C 34797.9 hPa Calm     73 % 0 mm 0.0 W/m2 CLR
19:39 -9.8 °C -12.3 °C 34797.9 hPa Calm     74 % 0 mm 0.0 W/m2 CLR
19:44 -9.9 °C -12.4 °C 34797.9 hPa Calm     75 % 0 mm 0.0 W/m2 CLR
19:49 -10.1 °C -12.4 °C 34808.1 hPa Calm     76 % 0 mm 0.0 W/m2 CLR
19:54 -10.2 °C -12.3 °C 34808.1 hPa Calm     78 % 0 mm 0.0 W/m2 CLR
19:59 -10.4 °C -12.4 °C 34808.1 hPa Calm     79 % 0 mm 0.0 W/m2 CLR
20:04 -10.6 °C -12.4 °C 34808.1 hPa Calm     80 % 0 mm 0.0 W/m2 CLR
20:09 -10.7 °C -12.5 °C 34808.1 hPa Calm     81 % 0 mm 0.0 W/m2 CLR
20:14 -10.9 °C -12.6 °C 34808.1 hPa Calm     82 % 0 mm 0.0 W/m2 CLR
20:19 -11.1 °C -12.7 °C 34808.1 hPa Calm     83 % 0 mm 0.0 W/m2 CLR
20:24 -11.2 °C -12.7 °C 34818.2 hPa Calm     84 % 0 mm 0.0 W/m2 CLR
20:29 -11.3 °C -12.7 °C 34818.2 hPa Calm     84 % 0 mm 0.0 W/m2 CLR
20:34 -11.3 °C -12.7 °C 34818.2 hPa Calm     85 % 0 mm 0.0 W/m2 CLR
20:39 -11.4 °C -12.8 °C 34818.2 hPa Calm     85 % 0 mm 0.0 W/m2 CLR
20:44 -11.6 °C -12.9 °C 34818.2 hPa Calm     85 % 0 mm 0.0 W/m2 CLR
20:49 -11.6 °C -12.9 °C 34818.2 hPa Calm     86 % 0 mm 0.0 W/m2 CLR
20:54 -11.8 °C -13 °C 34818.2 hPa Calm     86 % 0 mm 0.0 W/m2 CLR
21:00 -11.8 °C -13 °C 34818.2 hPa Calm     87 % 0 mm 0.0 W/m2 CLR
21:05 -11.9 °C -13.1 °C 34831.8 hPa Calm     87 % 0 mm 0.0 W/m2 CLR
21:10 -12.1 °C -13.2 °C 34831.8 hPa Calm     87 % 0 mm 0.0 W/m2 CLR
21:15 -12.1 °C -13.1 °C 34831.8 hPa Calm     88 % 0 mm 0.0 W/m2 CLR
21:20 -12.1 °C -13.2 °C 34831.8 hPa Calm     88 % 0 mm 0.0 W/m2 CLR
21:25 -12.2 °C -13.2 °C 34831.8 hPa Calm     88 % 0 mm 0.0 W/m2 CLR
21:30 -12.3 °C -13.3 °C 34841.9 hPa Calm     88 % 0 mm 0.0 W/m2 CLR
21:35 -12.3 °C -13.3 °C 34841.9 hPa Calm     89 % 0 mm 0.0 W/m2 CLR
21:40 -12.4 °C -13.3 °C 34841.9 hPa Calm     89 % 0 mm 0.0 W/m2 CLR
21:45 -12.4 °C -13.4 °C 34841.9 hPa Calm     89 % 0 mm 0.0 W/m2 CLR
21:50 -12.4 °C -13.4 °C 34841.9 hPa Calm     89 % 0 mm 0.0 W/m2 CLR
21:55 -12.6 °C -13.5 °C 34841.9 hPa Calm     89 % 0 mm 0.0 W/m2 CLR
22:00 -12.6 °C -13.4 °C 34841.9 hPa Calm     90 % 0 mm 0.0 W/m2 CLR
22:05 -12.6 °C -13.4 °C 34841.9 hPa Calm     90 % 0 mm 0.0 W/m2 CLR
22:10 -12.7 °C -13.5 °C 34841.9 hPa Calm     90 % 0 mm 0.0 W/m2 CLR
22:15 -12.7 °C -13.6 °C 34841.9 hPa Calm     90 % 0 mm 0.0 W/m2 CLR
22:20 -12.7 °C -13.6 °C 34852.1 hPa Calm     90 % 0 mm 0.0 W/m2 CLR
22:25 -12.7 °C -13.4 °C 34852.1 hPa Calm     91 % 0 mm 0.0 W/m2 CLR
22:30 -12.6 °C -13.4 °C 34852.1 hPa Calm     91 % 0 mm 0.0 W/m2 CLR
22:35 -12.6 °C -13.4 °C 34852.1 hPa Calm     91 % 0 mm 0.0 W/m2 CLR
22:40 -12.5 °C -13.3 °C 34852.1 hPa Calm     91 % 0 mm 0.0 W/m2 CLR
22:45 -12.4 °C -13.2 °C 34852.1 hPa Calm     91 % 0 mm 0.0 W/m2 CLR
22:50 -12.4 °C -13.2 °C 34852.1 hPa Calm     91 % 0 mm 0.0 W/m2 CLR
22:55 -12.4 °C -13.2 °C 34865.6 hPa Calm     90 % 0 mm 0.0 W/m2 CLR
23:00 -12.4 °C -13.4 °C 34865.6 hPa Calm     89 % 0 mm 0.0 W/m2 CLR
23:05 -12.6 °C -13.5 °C 34852.1 hPa Calm     89 % 0 mm 0.0 W/m2 CLR
23:10 -12.6 °C -13.6 °C 34852.1 hPa Calm     89 % 0 mm 0.0 W/m2 CLR
23:15 -12.6 °C -13.4 °C 34852.1 hPa Calm     90 % 0 mm 0.0 W/m2 CLR
23:20 -12.6 °C -13.4 °C 34852.1 hPa Calm     90 % 0 mm 0.0 W/m2 CLR
23:25 -12.4 °C -13.3 °C 34865.6 hPa Calm     90 % 0 mm 0.0 W/m2 CLR
23:30 -12.4 °C -13.2 °C 34865.6 hPa Calm     90 % 0 mm 0.0 W/m2 CLR
23:35 -12.3 °C -13.2 °C 34865.6 hPa Calm     89 % 0 mm 0.0 W/m2 CLR
23:40 -12.1 °C -13.1 °C 34865.6 hPa Calm     89 % 0 mm 0.0 W/m2 CLR
23:45 -12.1 °C -13.1 °C 34865.6 hPa WSW 3.1 km/h   88 % 0 mm 0.0 W/m2 CLR
23:50 -12.1 °C -13.2 °C 34865.6 hPa SW 6 km/h   87 % 0 mm 0.0 W/m2 CLR
23:55 -12.3 °C -13.4 °C 34865.6 hPa WSW 15 km/h 15 km/h 87 % 0 mm 0.0 W/m2 CLR
Lo Temps de Massalio
Compliments of Weather Underground - 1.25 mb